Time;durP1;ratioP1;P1;durP2;ratioP2;P2;SDS_P1;SDS_P2;PMS_P1;PMS_P2;Temp;Humidity;BMP_temperature;BMP_pressure;BME280_temperature;BME280_humidity;BME280_pressure;Samples;Min_cycle;Max_cycle;Signal;HPM_P1;HPM_P2
2021/12/01 00:00:17;;;;;;;;;1.00;1.00;;;;;11.44;58.91;100506.31;4993588;28;45880;-77
2021/12/01 00:02:43;;;;;;;;;2.00;2.00;;;;;11.47;58.97;100513.28;4994036;28;48213;-77
2021/12/01 00:05:10;;;;;;;;;1.00;1.00;;;;;11.45;59.06;100496.16;4994819;28;45389;-78
2021/12/01 00:07:36;;;;;;;;;1.00;1.00;;;;;11.50;59.40;100496.34;4995002;28;45785;-77
2021/12/01 00:10:05;;;;;;;;;1.00;1.00;;;;;11.54;58.43;100494.84;5007276;28;45497;-77
2021/12/01 00:12:30;;;;;;;;;2.00;2.00;;;;;11.47;59.27;100478.41;5007270;28;46422;-76
2021/12/01 00:14:56;;;;;;;;;2.00;2.00;;;;;11.54;58.89;100478.38;4993602;28;45818;-76
2021/12/01 00:17:21;;;;;;;;;2.00;2.00;;;;;11.53;58.93;100451.13;4994353;28;45565;-76
2021/12/01 00:19:47;;;;;;;;;3.00;3.00;;;;;11.57;58.69;100460.59;4994604;28;45548;-77
2021/12/01 00:22:12;;;;;;;;;3.00;3.00;;;;;11.59;59.08;100455.75;4993093;28;47864;-76
2021/12/01 00:24:38;;;;;;;;;2.00;2.00;;;;;11.54;59.10;100437.19;4992950;28;45308;-77
2021/12/01 00:27:03;;;;;;;;;4.00;3.00;;;;;11.64;59.22;100436.66;5004502;28;45730;-75
2021/12/01 00:29:29;;;;;;;;;3.00;3.00;;;;;11.64;59.18;100428.44;5013990;28;45313;-76
2021/12/01 00:31:54;;;;;;;;;4.00;4.00;;;;;11.60;59.38;100408.81;5005159;28;46648;-76
2021/12/01 00:34:20;;;;;;;;;3.33;3.33;;;;;11.62;59.51;100409.44;4993653;28;45418;-77
2021/12/01 00:36:45;;;;;;;;;4.67;2.33;;;;;11.60;60.02;100392.34;4991530;28;45478;-77
2021/12/01 00:39:10;;;;;;;;;3.00;3.00;;;;;11.63;59.85;100388.28;4983221;28;45311;-75
2021/12/01 00:41:36;;;;;;;;;4.67;4.67;;;;;11.61;59.94;100382.19;4989272;28;47178;-78
2021/12/01 00:44:02;;;;;;;;;4.67;3.67;;;;;11.62;60.09;100367.41;4974026;28;45500;-77
2021/12/01 00:49:06;;;;;;;;;4.00;4.00;;;;;11.52;59.96;100339.59;4980064;28;45781;-78
2021/12/01 00:51:31;;;;;;;;;6.67;4.00;;;;;11.67;60.44;100353.81;4992982;28;45728;-77
2021/12/01 00:53:56;;;;;;;;;4.33;4.33;;;;;11.68;60.17;100344.53;4993750;28;45429;-78
2021/12/01 00:56:22;;;;;;;;;4.00;4.00;;;;;11.68;60.16;100333.53;4994348;28;45305;-77
2021/12/01 00:58:47;;;;;;;;;7.00;6.00;;;;;11.70;60.65;100334.13;4993770;28;45638;-76
2021/12/01 01:01:13;;;;;;;;;4.00;4.00;;;;;11.67;60.28;100331.84;4993239;28;45508;-76
2021/12/01 01:03:39;;;;;;;;;5.67;4.00;;;;;11.68;60.37;100321.69;4985733;28;45476;-75
2021/12/01 01:06:05;;;;;;;;;6.00;4.00;;;;;11.69;59.93;100316.00;4972640;28;46034;-76
2021/12/01 01:08:31;;;;;;;;;4.00;4.00;;;;;11.68;60.04;100314.31;4974006;28;45840;-75
2021/12/01 01:16:25;;;;;;;;;4.33;4.00;;;;;11.72;60.48;100307.28;5013771;28;45609;-75
2021/12/01 01:19:03;;;;;;;;;3.33;3.33;;;;;11.69;60.42;100288.53;5013415;28;46020;-75
2021/12/01 01:21:32;;;;;;;;;4.00;4.00;;;;;11.69;60.83;100295.91;5013577;28;46698;-75
2021/12/01 01:23:59;;;;;;;;;5.67;4.00;;;;;11.69;60.36;100269.28;5013024;28;45451;-75
2021/12/01 01:26:26;;;;;;;;;3.00;2.00;;;;;11.65;60.34;100265.31;5012828;28;45906;-74
2021/12/01 01:28:51;;;;;;;;;3.67;2.33;;;;;11.65;60.24;100262.56;5012726;28;45802;-74
2021/12/01 01:31:18;;;;;;;;;3.00;3.00;;;;;11.63;60.57;100270.19;5010761;28;45753;-73
2021/12/01 01:33:44;;;;;;;;;1.00;1.00;;;;;11.59;60.55;100274.47;4993080;28;45484;-76
2021/12/01 01:36:10;;;;;;;;;2.00;2.00;;;;;11.53;60.45;100257.00;4993192;28;45619;-75
2021/12/01 01:38:36;;;;;;;;;2.67;2.00;;;;;11.56;60.36;100258.44;4992652;28;45956;-73
2021/12/01 01:41:04;;;;;;;;;2.33;1.67;;;;;11.55;60.76;100256.75;4992454;28;45415;-74
2021/12/01 01:43:30;;;;;;;;;1.00;1.00;;;;;11.58;60.93;100256.31;4990323;28;45499;-74
2021/12/01 01:45:56;;;;;;;;;1.00;1.00;;;;;11.61;60.90;100250.34;4992240;28;45780;-74
2021/12/01 01:48:32;;;;;;;;;0.67;0.67;;;;;11.58;61.10;100237.06;4991534;28;45761;-75
2021/12/01 01:51:00;;;;;;;;;1.00;1.00;;;;;11.59;61.26;100234.09;4992214;28;46520;-74
2021/12/01 01:53:27;;;;;;;;;1.00;1.00;;;;;11.59;61.56;100234.09;4990981;28;45404;-76
2021/12/01 01:55:56;;;;;;;;;1.00;1.00;;;;;11.54;61.74;100233.09;4992849;28;45857;-75
2021/12/01 01:58:22;;;;;;;;;1.00;1.00;;;;;11.56;61.59;100229.06;4992550;28;46039;-75
2021/12/01 02:01:05;;;;;;;;;2.00;2.00;;;;;11.56;62.00;100220.81;4991963;28;46831;-73
2021/12/01 02:03:31;;;;;;;;;2.00;2.00;;;;;11.58;61.83;100224.16;4990800;28;45548;-75
2021/12/01 02:05:56;;;;;;;;;3.67;2.33;;;;;11.55;62.17;100208.16;4990553;28;45647;-75
2021/12/01 02:08:29;;;;;;;;;2.00;2.00;;;;;11.58;62.24;100215.09;4991880;28;45849;-75
2021/12/01 02:10:57;;;;;;;;;1.33;1.33;;;;;11.56;61.88;100209.84;4972252;28;45719;-76
2021/12/01 02:13:22;;;;;;;;;2.00;2.00;;;;;11.55;62.39;100190.84;4971727;28;45573;-74
2021/12/01 02:15:50;;;;;;;;;2.00;2.00;;;;;11.56;61.98;100195.28;4988366;28;45757;-74
2021/12/01 02:18:17;;;;;;;;;2.00;1.33;;;;;11.54;62.04;100187.28;4991886;28;45520;-75
2021/12/01 02:21:26;;;;;;;;;1.00;1.00;;;;;11.55;62.23;100174.38;4991505;28;45784;-76
2021/12/01 02:23:52;;;;;;;;;1.67;1.33;;;;;11.57;62.03;100177.72;4969011;28;45570;-75
2021/12/01 02:26:20;;;;;;;;;1.33;0.33;;;;;11.57;61.75;100161.25;4992074;28;45783;-74
2021/12/01 02:28:48;;;;;;;;;0.00;0.00;;;;;11.57;61.76;100151.13;5011246;28;45340;-75
2021/12/01 02:31:14;;;;;;;;;0.67;0.67;;;;;11.54;61.86;100156.22;5009958;28;46400;-74
2021/12/01 02:33:40;;;;;;;;;1.67;1.00;;;;;11.56;62.11;100143.09;4991989;28;45520;-75
2021/12/01 02:36:14;;;;;;;;;2.00;1.00;;;;;11.55;61.68;100128.50;4992501;28;45423;-72
2021/12/01 02:38:42;;;;;;;;;2.67;1.00;;;;;11.57;61.73;100122.78;4992172;28;45604;-74
2021/12/01 02:41:09;;;;;;;;;1.00;1.00;;;;;11.58;61.91;100125.31;4991889;28;46355;-73
2021/12/01 02:43:35;;;;;;;;;1.67;1.00;;;;;11.56;62.37;100101.91;4990020;28;45764;-74
2021/12/01 02:46:00;;;;;;;;;1.00;1.00;;;;;11.57;62.65;100092.59;4990336;28;45736;-73
2021/12/01 02:48:26;;;;;;;;;1.00;1.00;;;;;11.57;62.76;100098.94;4991884;28;45372;-74
2021/12/01 02:50:53;;;;;;;;;2.00;2.00;;;;;11.59;62.91;100090.47;4991157;28;47044;-75
2021/12/01 02:53:23;;;;;;;;;4.00;2.00;;;;;11.57;62.89;100084.34;4977037;28;45381;-74
2021/12/01 02:56:00;;;;;;;;;3.00;3.00;;;;;11.56;62.99;100068.97;4984771;28;45804;-76
2021/12/01 02:58:31;;;;;;;;;2.00;2.00;;;;;11.58;63.28;100053.06;4972288;28;45736;-75
2021/12/01 03:01:00;;;;;;;;;2.00;2.00;;;;;11.57;63.16;100038.50;4993228;28;46129;-77
2021/12/01 03:03:26;;;;;;;;;2.33;2.00;;;;;11.53;63.16;100028.22;4993064;28;45422;-79
2021/12/01 03:05:51;;;;;;;;;3.00;3.00;;;;;11.52;63.62;100032.88;4995332;28;45467;-75
2021/12/01 03:08:19;;;;;;;;;4.67;2.00;;;;;11.54;63.03;100019.75;4995386;28;45526;-75
2021/12/01 03:10:47;;;;;;;;;1.33;1.33;;;;;11.47;63.41;100010.78;5013728;28;45658;-76
2021/12/01 03:13:13;;;;;;;;;1.00;1.00;;;;;11.51;63.53;100013.88;5014523;28;45849;-76
2021/12/01 03:15:39;;;;;;;;;2.00;2.00;;;;;11.50;63.44;100007.56;5014421;28;45384;-77
2021/12/01 03:18:05;;;;;;;;;1.67;1.67;;;;;11.48;63.50;100004.19;5015043;28;45723;-76
2021/12/01 03:20:30;;;;;;;;;1.00;1.00;;;;;11.40;63.96;99991.63;5014334;28;45578;-76
2021/12/01 03:22:57;;;;;;;;;2.67;2.00;;;;;11.47;64.05;99986.88;5012739;28;45321;-74
2021/12/01 03:25:23;;;;;;;;;3.00;1.00;;;;;11.52;64.13;99986.19;5013131;28;45749;-75
2021/12/01 03:27:48;;;;;;;;;0.67;0.67;;;;;11.43;63.89;99963.72;5014619;28;45419;-80
2021/12/01 03:30:14;;;;;;;;;1.00;1.00;;;;;11.44;64.71;99964.56;5013701;28;46050;-77
2021/12/01 03:32:41;;;;;;;;;3.33;2.00;;;;;11.44;64.57;99965.41;5000102;28;45377;-77
2021/12/01 03:35:12;;;;;;;;;0.00;0.00;;;;;11.45;64.87;99964.34;4995260;28;45443;-79
2021/12/01 03:37:40;;;;;;;;;3.00;1.00;;;;;11.37;65.25;99941.84;4994712;28;45415;-77
2021/12/01 03:40:06;;;;;;;;;1.00;1.00;;;;;11.45;65.07;99945.13;4995179;28;45810;-78
2021/12/01 03:42:32;;;;;;;;;0.33;0.33;;;;;11.41;65.88;99937.59;4994599;28;45513;-78
2021/12/01 03:44:57;;;;;;;;;0.00;0.00;;;;;11.39;65.54;99921.34;4995973;28;45793;-79
2021/12/01 03:47:25;;;;;;;;;2.00;1.00;;;;;11.39;66.34;99917.75;4995736;28;45757;-79
2021/12/01 03:49:51;;;;;;;;;1.00;1.00;;;;;11.39;66.92;99915.84;4989128;28;48079;-79
2021/12/01 03:52:17;;;;;;;;;2.00;0.67;;;;;11.35;66.75;99908.28;4991844;28;45329;-78
2021/12/01 03:54:47;;;;;;;;;0.00;0.00;;;;;11.34;66.30;99893.75;4995728;28;45535;-76
2021/12/01 03:57:13;;;;;;;;;1.00;0.00;;;;;11.31;67.18;99894.22;4995527;28;45523;-77
2021/12/01 03:59:38;;;;;;;;;0.00;0.00;;;;;11.34;66.90;99882.75;4994030;28;48125;-79
2021/12/01 04:02:05;;;;;;;;;1.00;1.00;;;;;11.34;66.98;99865.47;4995252;28;45434;-78
2021/12/01 04:04:31;;;;;;;;;2.00;1.00;;;;;11.39;67.24;99865.56;4995410;28;45535;-77
2021/12/01 04:06:56;;;;;;;;;1.00;1.00;;;;;11.36;67.19;99861.41;4995169;28;45669;-78
2021/12/01 04:09:22;;;;;;;;;1.00;1.00;;;;;11.33;67.42;99859.13;5002120;28;45460;-78
2021/12/01 04:11:48;;;;;;;;;1.33;1.33;;;;;11.36;67.38;99847.69;5014128;28;45411;-78
2021/12/01 04:14:13;;;;;;;;;0.00;0.00;;;;;11.35;67.36;99845.16;5014371;28;45411;-78
2021/12/01 04:16:39;;;;;;;;;1.00;1.00;;;;;11.36;67.56;99836.72;4996896;28;45391;-78
2021/12/01 04:19:05;;;;;;;;;1.67;0.33;;;;;11.33;67.74;99830.84;4992539;28;47204;-77
2021/12/01 04:21:34;;;;;;;;;0.00;0.00;;;;;11.34;67.64;99822.38;4994086;28;45474;-78
2021/12/01 04:23:59;;;;;;;;;0.67;0.67;;;;;11.32;67.86;99824.53;4994249;28;45419;-78
2021/12/01 04:26:27;;;;;;;;;0.00;0.00;;;;;11.32;67.71;99805.31;4991608;28;45913;-78
2021/12/01 04:28:53;;;;;;;;;0.00;0.00;;;;;11.30;67.65;99800.06;4981084;28;45531;-77
2021/12/01 04:31:19;;;;;;;;;1.00;1.00;;;;;11.28;68.33;99801.34;4984297;28;45341;-77
2021/12/01 04:33:45;;;;;;;;;0.00;0.00;;;;;11.29;68.19;99789.31;4982735;28;45628;-76
2021/12/01 04:36:11;;;;;;;;;0.00;0.00;;;;;11.34;68.39;99783.94;4978631;28;45835;-77
2021/12/01 04:38:37;;;;;;;;;0.00;0.00;;;;;11.33;68.40;99764.97;4973873;28;46877;-78
2021/12/01 04:41:02;;;;;;;;;0.00;0.00;;;;;11.36;68.78;99765.34;4978721;28;45770;-77
2021/12/01 04:43:28;;;;;;;;;2.00;1.33;;;;;11.38;68.21;99762.34;4978655;28;45482;-76
2021/12/01 04:45:58;;;;;;;;;1.33;0.00;;;;;11.38;68.16;99748.63;4979049;28;45850;-78
2021/12/01 04:48:25;;;;;;;;;0.00;0.00;;;;;11.40;68.39;99727.25;4984945;28;47121;-79
2021/12/01 04:50:51;;;;;;;;;0.00;0.00;;;;;11.39;68.88;99725.56;4990819;28;45508;-76
2021/12/01 04:53:17;;;;;;;;;0.00;0.00;;;;;11.37;68.85;99712.09;4994263;28;45795;-76
2021/12/01 04:55:43;;;;;;;;;1.00;1.00;;;;;11.33;68.66;99710.88;4994277;28;45433;-79
2021/12/01 04:58:09;;;;;;;;;0.00;0.00;;;;;11.34;69.03;99707.06;4993791;28;46071;-76
2021/12/01 05:00:36;;;;;;;;;1.00;1.00;;;;;11.33;68.62;99702.66;4994735;28;45435;-77
2021/12/01 05:03:03;;;;;;;;;1.00;1.00;;;;;11.32;68.51;99703.75;4995072;28;45502;-78
2021/12/01 05:05:29;;;;;;;;;1.00;1.00;;;;;11.28;68.74;99691.56;4994257;28;44970;-78
2021/12/01 05:07:54;;;;;;;;;1.00;1.00;;;;;11.22;69.22;99689.78;4994713;28;47209;-78
2021/12/01 05:10:20;;;;;;;;;0.00;0.00;;;;;11.21;69.27;99678.00;5008165;28;45792;-77
2021/12/01 05:12:45;;;;;;;;;0.33;0.33;;;;;11.19;69.17;99668.31;5012850;28;45821;-77
2021/12/01 05:15:11;;;;;;;;;2.00;0.00;;;;;11.19;69.50;99680.13;5005321;28;45414;-76
2021/12/01 05:17:37;;;;;;;;;0.00;0.00;;;;;11.21;69.52;99668.91;4990734;28;46979;-77
2021/12/01 05:20:05;;;;;;;;;0.00;0.00;;;;;11.16;69.58;99669.63;4988280;28;45492;-76
2021/12/01 05:22:31;;;;;;;;;0.00;0.00;;;;;11.16;69.26;99661.38;4985973;28;45847;-78
2021/12/01 05:24:57;;;;;;;;;0.00;0.00;;;;;11.17;69.54;99656.72;4991533;28;45508;-77
2021/12/01 05:27:23;;;;;;;;;3.00;0.00;;;;;11.15;69.83;99669.84;4993345;28;45469;-79
2021/12/01 05:29:49;;;;;;;;;1.33;0.00;;;;;11.14;69.40;99663.53;4992149;28;46022;-76
2021/12/01 05:32:16;;;;;;;;;0.00;0.00;;;;;11.12;69.38;99655.56;4990460;28;45750;-75
2021/12/01 05:34:42;;;;;;;;;1.00;0.00;;;;;11.12;69.42;99665.69;4988110;28;45866;-76
2021/12/01 05:37:07;;;;;;;;;0.00;0.00;;;;;11.17;69.55;99643.84;4989530;28;45824;-74
2021/12/01 05:39:33;;;;;;;;;0.00;0.00;;;;;11.19;69.18;99647.19;4989310;28;45423;-75
2021/12/01 05:41:59;;;;;;;;;0.00;0.00;;;;;11.22;68.80;99651.38;4991788;28;45526;-75
2021/12/01 05:44:25;;;;;;;;;0.00;0.00;;;;;11.24;68.79;99651.94;4984011;28;45613;-74
2021/12/01 05:46:51;;;;;;;;;0.00;0.00;;;;;11.24;69.31;99638.22;4983386;28;45816;-75
2021/12/01 05:49:17;;;;;;;;;0.00;0.00;;;;;11.21;69.47;99623.09;4981816;28;45882;-77
2021/12/01 05:51:43;;;;;;;;;0.00;0.00;;;;;11.17;69.39;99627.38;4986222;28;45446;-76
2021/12/01 05:54:09;;;;;;;;;2.00;0.00;;;;;11.22;69.81;99629.41;4984681;28;45988;-75
2021/12/01 05:56:35;;;;;;;;;0.00;0.00;;;;;11.22;69.51;99621.19;4992113;28;46696;-77
2021/12/01 05:59:01;;;;;;;;;0.00;0.00;;;;;11.26;69.18;99617.72;4992294;28;45725;-75
2021/12/01 06:01:26;;;;;;;;;0.00;0.00;;;;;11.29;69.40;99605.41;4986552;28;45944;-74
2021/12/01 06:03:52;;;;;;;;;0.00;0.00;;;;;11.31;68.84;99600.50;4985645;28;45490;-72
2021/12/01 06:06:17;;;;;;;;;0.00;0.00;;;;;11.34;69.31;99602.78;4990181;28;45903;-73
2021/12/01 06:08:43;;;;;;;;;0.00;0.00;;;;;11.38;69.30;99592.16;4978855;28;45764;-74
2021/12/01 06:11:09;;;;;;;;;0.00;0.00;;;;;11.43;69.10;99593.06;4992728;28;45510;-81
2021/12/01 06:13:35;;;;;;;;;0.00;0.00;;;;;11.48;69.03;99575.88;4978737;28;45822;-80
2021/12/01 06:16:00;;;;;;;;;0.00;0.00;;;;;11.46;69.19;99573.38;4981679;28;46796;-82
2021/12/01 06:18:26;;;;;;;;;0.00;0.00;;;;;11.49;69.52;99583.84;4987208;28;45504;-73
2021/12/01 06:20:52;;;;;;;;;0.00;0.00;;;;;11.51;69.29;99578.13;4982661;28;45424;-77
2021/12/01 06:23:17;;;;;;;;;0.00;0.00;;;;;11.51;68.94;99560.81;4986467;28;45853;-82
2021/12/01 06:25:43;;;;;;;;;0.00;0.00;;;;;11.51;69.25;99564.41;4980300;28;45891;-81
2021/12/01 06:28:09;;;;;;;;;0.00;0.00;;;;;11.53;69.04;99573.25;4983477;28;45743;-74
2021/12/01 06:30:37;;;;;;;;;0.00;0.00;;;;;11.54;69.08;99563.94;4986321;28;45800;-75
2021/12/01 06:33:03;;;;;;;;;0.00;0.00;;;;;11.55;69.30;99557.34;4985644;28;45647;-79
2021/12/01 06:35:29;;;;;;;;;0.00;0.00;;;;;11.60;69.07;99562.94;4989601;28;45514;-81
2021/12/01 06:37:55;;;;;;;;;0.00;0.00;;;;;11.61;68.90;99558.28;4991171;28;45616;-80
2021/12/01 06:40:24;;;;;;;;;0.00;0.00;;;;;11.61;69.37;99553.63;4981994;28;47130;-80
2021/12/01 06:42:50;;;;;;;;;0.00;0.00;;;;;11.65;69.55;99559.47;4975152;28;45569;-80
2021/12/01 06:45:18;;;;;;;;;0.00;0.00;;;;;11.67;69.38;99560.03;4985728;28;47102;-69
2021/12/01 06:47:45;;;;;;;;;0.00;0.00;;;;;11.70;69.53;99545.81;4989759;28;45754;-77
2021/12/01 06:50:11;;;;;;;;;0.00;0.00;;;;;11.71;69.38;99533.75;4978206;28;45861;-78
2021/12/01 06:52:38;;;;;;;;;0.00;0.00;;;;;11.73;69.15;99533.50;4985275;28;47114;-70
2021/12/01 06:55:06;;;;;;;;;0.00;0.00;;;;;11.76;69.22;99538.50;4991548;28;47706;-78
2021/12/01 06:57:32;;;;;;;;;0.33;0.00;;;;;11.74;69.50;99530.53;4989887;28;45554;-72
2021/12/01 06:59:58;;;;;;;;;0.00;0.00;;;;;11.79;69.85;99532.53;4989351;28;45895;-81
2021/12/01 07:02:24;;;;;;;;;0.00;0.00;;;;;11.78;69.98;99531.72;4991051;28;45538;-81
2021/12/01 07:04:49;;;;;;;;;0.67;0.00;;;;;11.84;70.09;99533.47;4988383;28;46983;-72
2021/12/01 07:07:15;;;;;;;;;0.00;0.00;;;;;11.89;70.15;99526.41;4989820;28;45579;-73
2021/12/01 07:09:41;;;;;;;;;0.00;0.00;;;;;11.93;69.79;99527.56;4992657;28;45577;-72
2021/12/01 07:12:07;;;;;;;;;0.00;0.00;;;;;11.94;69.93;99535.56;4986576;28;45973;-72
2021/12/01 07:14:32;;;;;;;;;0.00;0.00;;;;;11.96;69.69;99527.94;4983256;28;46770;-71
2021/12/01 07:16:58;;;;;;;;;0.00;0.00;;;;;11.99;70.24;99537.56;4983924;28;45851;-72
2021/12/01 07:19:24;;;;;;;;;0.00;0.00;;;;;11.98;70.34;99525.75;4981573;28;45643;-72
2021/12/01 07:21:49;;;;;;;;;0.00;0.00;;;;;12.01;70.65;99530.75;4980347;28;45524;-72
2021/12/01 07:24:16;;;;;;;;;0.00;0.00;;;;;12.03;70.60;99530.50;4974756;28;46745;-71
2021/12/01 07:26:42;;;;;;;;;0.00;0.00;;;;;11.95;70.26;99515.25;4977794;28;45613;-73
2021/12/01 07:29:08;;;;;;;;;1.00;0.00;;;;;11.99;71.09;99518.34;4975813;28;45563;-71
2021/12/01 07:31:34;;;;;;;;;0.00;0.00;;;;;12.07;70.89;99523.44;4988218;28;45502;-80
2021/12/01 07:33:59;;;;;;;;;0.00;0.00;;;;;12.05;70.63;99524.75;4981230;28;45474;-79
2021/12/01 07:36:25;;;;;;;;;0.00;0.00;;;;;12.08;70.75;99522.38;4993026;28;45593;-79
2021/12/01 07:38:50;;;;;;;;;0.00;0.00;;;;;12.08;70.65;99533.34;4995323;28;45452;-78
2021/12/01 07:41:20;;;;;;;;;0.00;0.00;;;;;12.10;70.48;99533.09;5007313;28;46367;-79
2021/12/01 07:43:47;;;;;;;;;0.00;0.00;;;;;12.09;70.26;99529.50;5028180;28;47144;-77
2021/12/01 07:46:15;;;;;;;;;1.00;0.00;;;;;12.15;70.09;99531.25;5006401;28;45882;-74
2021/12/01 07:48:44;;;;;;;;;6.00;3.00;;;;;12.16;69.92;99527.44;4994327;28;45423;-73
2021/12/01 07:51:09;;;;;;;;;1.00;1.00;;;;;12.13;69.65;99536.19;4988164;28;45571;-73
2021/12/01 07:53:35;;;;;;;;;0.00;0.00;;;;;12.19;69.20;99523.34;4994503;28;45517;-74
2021/12/01 07:56:02;;;;;;;;;0.00;0.00;;;;;12.22;69.36;99524.78;4995415;28;45888;-75
2021/12/01 07:58:28;;;;;;;;;1.00;1.00;;;;;12.23;69.21;99520.94;5003714;28;45472;-78
2021/12/01 08:00:53;;;;;;;;;0.67;0.67;;;;;12.30;69.47;99502.34;5002768;28;45548;-72
2021/12/01 08:03:19;;;;;;;;;0.00;0.00;;;;;12.35;68.71;99507.97;4994793;28;46578;-72
2021/12/01 08:05:44;;;;;;;;;1.00;1.00;;;;;12.36;68.53;99506.84;4991647;28;45936;-74
2021/12/01 08:08:11;;;;;;;;;1.00;0.00;;;;;12.35;68.18;99513.44;4980364;28;45896;-73
2021/12/01 08:10:36;;;;;;;;;4.33;4.33;;;;;12.37;68.49;99505.78;4987204;28;45559;-71
2021/12/01 08:13:04;;;;;;;;;0.00;0.00;;;;;12.41;67.85;99495.94;4989571;28;46090;-73
2021/12/01 08:15:30;;;;;;;;;0.00;0.00;;;;;12.42;68.10;99491.28;4993103;28;45779;-72
2021/12/01 08:17:55;;;;;;;;;1.33;0.00;;;;;12.41;67.97;99495.94;4979292;28;45749;-73
2021/12/01 08:20:21;;;;;;;;;2.00;0.33;;;;;12.28;67.76;99471.56;4972661;28;45930;-72
2021/12/01 08:22:47;;;;;;;;;1.00;0.00;;;;;12.36;67.88;99487.59;4975945;28;45538;-72
2021/12/01 08:25:13;;;;;;;;;0.00;0.00;;;;;12.36;68.02;99490.34;4983084;28;46002;-72
2021/12/01 08:27:38;;;;;;;;;0.67;0.67;;;;;12.46;68.08;99501.50;4972508;28;45448;-73
2021/12/01 08:30:06;;;;;;;;;0.00;0.00;;;;;12.54;67.43;99494.75;4981288;28;46440;-72
2021/12/01 08:32:31;;;;;;;;;0.00;0.00;;;;;12.65;67.14;99507.56;4980719;28;46974;-72
2021/12/01 08:34:57;;;;;;;;;0.00;0.00;;;;;12.77;66.72;99498.34;4976145;28;45697;-79
2021/12/01 08:37:22;;;;;;;;;0.00;0.00;;;;;12.92;66.17;99490.31;4976728;28;45749;-76
2021/12/01 08:39:49;;;;;;;;;1.00;0.00;;;;;13.15;65.41;99486.47;4970465;28;47160;-76
2021/12/01 08:42:19;;;;;;;;;0.00;0.00;;;;;13.59;64.34;99485.59;4972567;28;46620;-75
2021/12/01 08:44:46;;;;;;;;;0.00;0.00;;;;;13.87;63.25;99481.72;4972253;28;45476;-76
2021/12/01 08:47:14;;;;;;;;;0.00;0.00;;;;;14.01;62.96;99495.06;4973364;28;45477;-74
2021/12/01 08:49:40;;;;;;;;;0.00;0.00;;;;;14.00;62.24;99483.22;4980247;28;45541;-79
2021/12/01 08:52:05;;;;;;;;;0.00;0.00;;;;;14.00;62.99;99471.38;4985385;28;45321;-80
2021/12/01 08:54:31;;;;;;;;;0.33;0.00;;;;;14.18;62.63;99484.75;4994067;28;45601;-80
2021/12/01 08:56:57;;;;;;;;;0.00;0.00;;;;;14.97;60.15;99474.78;4994101;28;45789;-81
2021/12/01 08:59:23;;;;;;;;;0.00;0.00;;;;;15.80;57.41;99483.31;5003665;28;45387;-79
2021/12/01 09:01:48;;;;;;;;;0.33;0.33;;;;;15.99;56.67;99476.13;5012336;28;47350;-80
2021/12/01 09:04:13;;;;;;;;;0.00;0.00;;;;;16.16;55.92;99467.56;4974813;28;45696;-80
2021/12/01 09:06:39;;;;;;;;;0.00;0.00;;;;;16.15;56.22;99488.03;4974690;28;45872;-79
2021/12/01 09:09:04;;;;;;;;;2.00;0.00;;;;;16.14;55.46;99485.56;4983435;28;45905;-81
2021/12/01 09:11:30;;;;;;;;;0.00;0.00;;;;;16.01;55.46;99484.16;4995989;28;45755;-79
2021/12/01 09:13:55;;;;;;;;;0.33;0.33;;;;;15.84;55.62;99479.72;4993899;28;45485;-80
2021/12/01 09:16:21;;;;;;;;;0.00;0.00;;;;;15.92;55.70;99481.13;4993822;28;45635;-80
2021/12/01 09:18:47;;;;;;;;;0.00;0.00;;;;;15.83;55.42;99485.53;4994322;28;45330;-80
2021/12/01 09:21:13;;;;;;;;;1.00;0.00;;;;;15.56;55.16;99481.03;4994262;28;46117;-79
2021/12/01 09:23:38;;;;;;;;;0.00;0.00;;;;;15.29;55.63;99481.25;4994453;28;45427;-80
2021/12/01 09:26:04;;;;;;;;;0.00;0.00;;;;;15.08;56.23;99477.59;4992788;28;45742;-81
2021/12/01 09:28:30;;;;;;;;;0.00;0.00;;;;;14.75;57.25;99472.19;4993430;28;45641;-81
2021/12/01 09:30:57;;;;;;;;;0.00;0.00;;;;;14.76;56.98;99478.53;4994221;28;45427;-82
2021/12/01 09:33:24;;;;;;;;;0.00;0.00;;;;;14.68;57.35;99493.66;4975067;28;45476;-81
2021/12/01 09:35:51;;;;;;;;;1.00;0.00;;;;;14.54;57.91;99500.72;4976307;28;45446;-79
2021/12/01 09:38:18;;;;;;;;;0.67;0.00;;;;;14.34;57.84;99495.88;4972622;28;46347;-80
2021/12/01 09:40:51;;;;;;;;;0.00;0.00;;;;;14.38;57.94;99505.31;4974026;28;45413;-79
2021/12/01 09:43:22;;;;;;;;;0.00;0.00;;;;;14.64;57.37;99507.16;4973930;28;45982;-80
2021/12/01 09:45:48;;;;;;;;;0.00;0.00;;;;;14.80;56.10;99512.78;4972711;28;45495;-79
2021/12/01 09:48:14;;;;;;;;;0.67;0.00;;;;;14.74;55.56;99494.53;4974787;28;45480;-78
2021/12/01 09:50:40;;;;;;;;;0.00;0.00;;;;;14.79;55.73;99511.09;4974697;28;45498;-81
2021/12/01 09:53:06;;;;;;;;;0.33;0.33;;;;;14.79;56.41;99516.63;4974331;28;45608;-80
2021/12/01 09:55:32;;;;;;;;;0.00;0.00;;;;;14.80;56.51;99521.06;4974788;28;45386;-80
2021/12/01 09:58:01;;;;;;;;;0.00;0.00;;;;;14.89;55.90;99511.16;4974338;28;45571;-78
2021/12/01 10:00:29;;;;;;;;;0.00;0.00;;;;;14.84;55.75;99505.63;5010674;28;46936;-80
2021/12/01 10:02:56;;;;;;;;;0.33;0.33;;;;;14.88;55.45;99505.91;5012850;28;45817;-80
2021/12/01 10:05:49;;;;;;;;;0.67;0.67;;;;;14.81;55.19;99517.22;5013109;28;45850;-79
2021/12/01 10:08:26;;;;;;;;;0.00;0.00;;;;;14.74;55.13;99513.84;5012152;28;45522;-81
2021/12/01 10:10:54;;;;;;;;;0.00;0.00;;;;;14.64;56.12;99522.88;4993557;28;45424;-81
2021/12/01 10:13:32;;;;;;;;;1.33;0.00;;;;;14.58;56.63;99526.69;4993439;28;45157;-81
2021/12/01 10:16:01;;;;;;;;;0.00;0.00;;;;;14.47;56.58;99514.75;4998267;28;45482;-82
2021/12/01 10:18:29;;;;;;;;;0.67;0.00;;;;;14.48;56.59;99527.44;4993367;28;45736;-80
2021/12/01 10:21:09;;;;;;;;;1.00;1.00;;;;;14.23;56.23;99525.31;4998697;28;47251;-82
2021/12/01 10:23:36;;;;;;;;;0.33;0.33;;;;;14.18;56.71;99525.28;4993269;28;45741;-82
2021/12/01 10:26:14;;;;;;;;;0.00;0.00;;;;;14.07;57.07;99527.09;4997498;28;45787;-81
2021/12/01 10:28:44;;;;;;;;;2.00;0.67;;;;;13.86;57.73;99513.16;4997268;28;45942;-81
2021/12/01 10:31:12;;;;;;;;;0.00;0.00;;;;;13.77;58.23;99518.31;4995787;28;45997;-82
2021/12/01 10:33:38;;;;;;;;;3.00;2.00;;;;;13.73;59.10;99519.09;4991605;28;45766;-81
2021/12/01 10:36:08;;;;;;;;;1.33;1.00;;;;;13.72;58.80;99522.94;4995805;28;45764;-83
2021/12/01 10:38:39;;;;;;;;;1.00;1.00;;;;;13.67;58.86;99512.69;4996425;28;45613;-82
2021/12/01 10:41:13;;;;;;;;;0.33;0.33;;;;;13.71;58.83;99521.25;4992724;28;45646;-84
2021/12/01 10:43:48;;;;;;;;;0.67;0.67;;;;;13.73;58.98;99525.44;4991233;28;45382;-84
2021/12/01 10:46:18;;;;;;;;;2.67;0.67;;;;;13.72;59.65;99525.69;4993829;28;45483;-83
2021/12/01 10:49:02;;;;;;;;;2.67;1.00;;;;;13.77;58.78;99534.00;4988772;28;46320;-84
2021/12/01 10:51:34;;;;;;;;;3.00;2.33;;;;;13.82;59.42;99528.53;5002191;28;46531;-84
2021/12/01 10:54:00;;;;;;;;;3.67;3.67;;;;;13.78;58.92;99521.88;4992947;28;45535;-85
2021/12/01 10:56:28;;;;;;;;;2.00;2.00;;;;;13.93;57.70;99532.22;5001258;28;44821;-85
2021/12/01 10:58:54;;;;;;;;;3.33;3.33;;;;;14.11;58.20;99537.34;4992427;28;47147;-85
2021/12/01 11:01:23;;;;;;;;;2.33;2.33;;;;;14.31;56.98;99522.06;4991083;28;47055;-84
2021/12/01 11:03:54;;;;;;;;;2.33;2.33;;;;;14.43;57.19;99525.50;4993550;28;45425;-85
2021/12/01 11:06:33;;;;;;;;;1.00;1.00;;;;;14.52;56.83;99528.59;4989221;28;45368;-86
2021/12/01 11:08:59;;;;;;;;;3.00;1.33;;;;;14.59;56.94;99523.66;4994809;28;45720;-81
2021/12/01 11:11:39;;;;;;;;;4.00;3.00;;;;;14.53;57.11;99513.69;4989360;28;45717;-77
2021/12/01 11:14:17;;;;;;;;;2.33;2.33;;;;;14.39;56.43;99504.22;4989720;28;45530;-79
2021/12/01 11:16:44;;;;;;;;;2.67;2.67;;;;;14.41;56.97;99516.63;4991950;28;45588;-79
2021/12/01 11:19:10;;;;;;;;;2.67;2.67;;;;;14.42;56.68;99515.53;4971897;28;45961;-77
2021/12/01 11:21:38;;;;;;;;;1.33;1.33;;;;;14.37;56.73;99520.19;4981965;28;46351;-79
2021/12/01 11:24:12;;;;;;;;;2.67;1.00;;;;;14.45;57.06;99511.44;4988361;28;45545;-75
2021/12/01 11:26:42;;;;;;;;;2.00;2.00;;;;;14.56;56.07;99512.31;4985832;28;45886;-77
2021/12/01 11:29:12;;;;;;;;;1.67;0.67;;;;;14.59;55.92;99514.56;4977820;28;45973;-75
2021/12/01 11:31:41;;;;;;;;;7.67;2.33;;;;;14.56;56.07;99501.28;4984869;28;47235;-73
2021/12/01 11:34:10;;;;;;;;;1.00;1.00;;;;;14.55;56.29;99508.75;4984241;28;45655;-75
2021/12/01 11:36:40;;;;;;;;;2.67;1.67;;;;;14.44;55.61;99499.53;4979962;28;45642;-74
2021/12/01 11:39:10;;;;;;;;;2.67;1.33;;;;;14.65;55.42;99513.50;4979024;28;45639;-74